sensor_id;sensor_type;location;lat;lon;timestamp;pressure;altitude;pressure_sealevel;temperature;humidity
62708;BME280;48769;51.624;5.886;2023-07-28T00:00:15;100356.69;;;18.05;100.00
62708;BME280;48769;51.624;5.886;2023-07-28T00:02:41;100353.47;;;18.01;100.00
62708;BME280;48769;51.624;5.886;2023-07-28T00:05:06;100351.63;;;18.02;100.00
62708;BME280;48769;51.624;5.886;2023-07-28T00:07:31;100355.31;;;18.01;100.00
62708;BME280;48769;51.624;5.886;2023-07-28T00:09:59;100352.75;;;17.99;100.00
62708;BME280;48769;51.624;5.886;2023-07-28T00:12:24;100344.88;;;17.97;100.00
62708;BME280;48769;51.624;5.886;2023-07-28T00:14:49;100348.53;;;17.96;100.00
62708;BME280;48769;51.624;5.886;2023-07-28T00:17:15;100350.22;;;17.97;100.00
62708;BME280;48769;51.624;5.886;2023-07-28T00:19:40;100339.66;;;17.96;100.00
62708;BME280;48769;51.624;5.886;2023-07-28T00:22:05;100344.00;;;17.97;100.00
62708;BME280;48769;51.624;5.886;2023-07-28T00:24:31;100337.84;;;17.96;100.00
62708;BME280;48769;51.624;5.886;2023-07-28T00:26:56;100342.06;;;17.99;100.00
62708;BME280;48769;51.624;5.886;2023-07-28T00:29:21;100342.22;;;17.97;100.00
62708;BME280;48769;51.624;5.886;2023-07-28T00:31:46;100335.16;;;17.96;100.00
62708;BME280;48769;51.624;5.886;2023-07-28T00:34:12;100339.66;;;17.96;100.00
62708;BME280;48769;51.624;5.886;2023-07-28T00:36:37;100336.16;;;17.95;100.00
62708;BME280;48769;51.624;5.886;2023-07-28T00:39:03;100336.16;;;17.95;100.00
62708;BME280;48769;51.624;5.886;2023-07-28T00:41:28;100343.16;;;17.96;100.00
62708;BME280;48769;51.624;5.886;2023-07-28T00:43:54;100343.16;;;17.96;100.00
62708;BME280;48769;51.624;5.886;2023-07-28T00:46:19;100335.88;;;17.98;100.00
62708;BME280;48769;51.624;5.886;2023-07-28T00:48:45;100333.03;;;18.00;100.00
62708;BME280;48769;51.624;5.886;2023-07-28T00:51:11;100331.25;;;18.01;100.00
62708;BME280;48769;51.624;5.886;2023-07-28T00:53:37;100332.22;;;17.99;100.00
62708;BME280;48769;51.624;5.886;2023-07-28T00:56:02;100330.53;;;17.98;100.00
62708;BME280;48769;51.624;5.886;2023-07-28T00:58:29;100335.88;;;17.98;100.00
62708;BME280;48769;51.624;5.886;2023-07-28T01:00:55;100335.59;;;18.02;100.00
62708;BME280;48769;51.624;5.886;2023-07-28T01:03:20;100339.00;;;18.04;100.00
62708;BME280;48769;51.624;5.886;2023-07-28T01:08:30;100344.34;;;18.04;100.00
62708;BME280;48769;51.624;5.886;2023-07-28T01:10:58;100347.97;;;18.03;100.00
62708;BME280;48769;51.624;5.886;2023-07-28T01:13:23;100347.13;;;18.02;100.00
62708;BME280;48769;51.624;5.886;2023-07-28T01:15:48;100356.97;;;18.02;100.00
62708;BME280;48769;51.624;5.886;2023-07-28T01:18:14;100354.72;;;18.07;100.00
62708;BME280;48769;51.624;5.886;2023-07-28T01:20:41;100350.38;;;18.06;100.00
62708;BME280;48769;51.624;5.886;2023-07-28T01:23:11;100351.34;;;18.05;100.00
62708;BME280;48769;51.624;5.886;2023-07-28T01:26:05;100360.38;;;18.04;100.00
62708;BME280;48769;51.624;5.886;2023-07-28T01:28:33;100353.31;;;18.03;100.00
62708;BME280;48769;51.624;5.886;2023-07-28T01:31:01;100350.25;;;18.07;100.00
62708;BME280;48769;51.624;5.886;2023-07-28T01:33:27;100352.03;;;18.07;100.00
62708;BME280;48769;51.624;5.886;2023-07-28T01:35:52;100353.75;;;18.08;100.00
62708;BME280;48769;51.624;5.886;2023-07-28T01:38:17;100352.75;;;18.09;100.00
62708;BME280;48769;51.624;5.886;2023-07-28T01:40:42;100351.91;;;18.08;100.00
62708;BME280;48769;51.624;5.886;2023-07-28T01:43:08;100363.44;;;18.09;100.00
62708;BME280;48769;51.624;5.886;2023-07-28T01:45:33;100358.09;;;18.09;100.00
62708;BME280;48769;51.624;5.886;2023-07-28T01:47:58;100359.09;;;18.08;100.00
62708;BME280;48769;51.624;5.886;2023-07-28T01:50:24;100364.16;;;18.11;100.00
62708;BME280;48769;51.624;5.886;2023-07-28T01:52:49;100365.41;;;18.07;100.00
62708;BME280;48769;51.624;5.886;2023-07-28T01:55:14;100363.72;;;18.06;100.00
62708;BME280;48769;51.624;5.886;2023-07-28T01:57:40;100365.41;;;18.07;100.00
62708;BME280;48769;51.624;5.886;2023-07-28T02:00:06;100362.03;;;18.05;100.00
62708;BME280;48769;51.624;5.886;2023-07-28T02:02:31;100360.06;;;18.07;100.00
62708;BME280;48769;51.624;5.886;2023-07-28T02:04:57;100350.09;;;18.09;100.00
62708;BME280;48769;51.624;5.886;2023-07-28T02:07:22;100357.81;;;18.12;100.00
62708;BME280;48769;51.624;5.886;2023-07-28T02:09:47;100357.81;;;18.12;100.00
62708;BME280;48769;51.624;5.886;2023-07-28T02:12:12;100351.38;;;18.14;100.00
62708;BME280;48769;51.624;5.886;2023-07-28T02:14:38;100351.38;;;18.14;100.00
62708;BME280;48769;51.624;5.886;2023-07-28T02:17:03;100354.88;;;18.15;100.00
62708;BME280;48769;51.624;5.886;2023-07-28T02:19:28;100353.03;;;18.15;100.00
62708;BME280;48769;51.624;5.886;2023-07-28T02:21:54;100353.47;;;18.11;100.00
62708;BME280;48769;51.624;5.886;2023-07-28T02:24:19;100355.16;;;18.12;100.00
62708;BME280;48769;51.624;5.886;2023-07-28T02:26:44;100357.56;;;18.15;100.00
62708;BME280;48769;51.624;5.886;2023-07-28T02:29:10;100355.88;;;18.14;100.00
62708;BME280;48769;51.624;5.886;2023-07-28T02:31:35;100361.22;;;18.14;100.00
62708;BME280;48769;51.624;5.886;2023-07-28T02:34:00;100358.53;;;18.14;100.00
62708;BME280;48769;51.624;5.886;2023-07-28T02:36:26;100359.22;;;18.16;100.00
62708;BME280;48769;51.624;5.886;2023-07-28T02:38:51;100358.28;;;18.17;100.00
62708;BME280;48769;51.624;5.886;2023-07-28T02:41:16;100363.63;;;18.17;100.00
62708;BME280;48769;51.624;5.886;2023-07-28T02:43:42;100363.47;;;18.18;100.00
62708;BME280;48769;51.624;5.886;2023-07-28T02:46:07;100363.75;;;18.15;100.00
62708;BME280;48769;51.624;5.886;2023-07-28T02:48:32;100366.28;;;18.17;100.00
62708;BME280;48769;51.624;5.886;2023-07-28T02:50:58;100371.63;;;18.17;100.00
62708;BME280;48769;51.624;5.886;2023-07-28T02:53:23;100370.91;;;18.15;100.00
62708;BME280;48769;51.624;5.886;2023-07-28T02:55:48;100371.63;;;18.17;100.00
62708;BME280;48769;51.624;5.886;2023-07-28T02:58:14;100377.94;;;18.16;100.00
62708;BME280;48769;51.624;5.886;2023-07-28T03:00:41;100381.63;;;18.15;100.00
62708;BME280;48769;51.624;5.886;2023-07-28T03:03:08;100377.25;;;18.14;100.00
62708;BME280;48769;51.624;5.886;2023-07-28T03:05:35;100380.91;;;18.13;100.00
62708;BME280;48769;51.624;5.886;2023-07-28T03:08:01;100377.38;;;18.12;100.00
62708;BME280;48769;51.624;5.886;2023-07-28T03:10:26;100382.72;;;18.12;100.00
62708;BME280;48769;51.624;5.886;2023-07-28T03:12:51;100385.56;;;18.11;100.00
62708;BME280;48769;51.624;5.886;2023-07-28T03:15:17;100383.84;;;18.10;100.00
62708;BME280;48769;51.624;5.886;2023-07-28T03:17:42;100385.56;;;18.11;100.00
62708;BME280;48769;51.624;5.886;2023-07-28T03:20:08;100383.72;;;18.11;100.00
62708;BME280;48769;51.624;5.886;2023-07-28T03:22:33;100384.56;;;18.12;100.00
62708;BME280;48769;51.624;5.886;2023-07-28T03:24:59;100381.06;;;18.11;100.00
62708;BME280;48769;51.624;5.886;2023-07-28T03:27:24;100383.84;;;18.10;100.00
62708;BME280;48769;51.624;5.886;2023-07-28T03:29:50;100382.88;;;18.11;100.00
62708;BME280;48769;51.624;5.886;2023-07-28T03:32:16;100380.47;;;18.08;100.00
62708;BME280;48769;51.624;5.886;2023-07-28T03:34:41;100374.41;;;18.06;100.00
62708;BME280;48769;51.624;5.886;2023-07-28T03:37:07;100371.19;;;18.02;100.00
62708;BME280;48769;51.624;5.886;2023-07-28T03:39:32;100373.00;;;18.02;100.00
62708;BME280;48769;51.624;5.886;2023-07-28T03:41:57;100378.47;;;18.00;100.00
62708;BME280;48769;51.624;5.886;2023-07-28T03:44:23;100380.31;;;17.99;100.00
62708;BME280;48769;51.624;5.886;2023-07-28T03:46:48;100382.03;;;18.01;100.00
62708;BME280;48769;51.624;5.886;2023-07-28T03:49:14;100389.16;;;18.00;100.00
62708;BME280;48769;51.624;5.886;2023-07-28T03:51:39;100392.72;;;18.01;100.00
62708;BME280;48769;51.624;5.886;2023-07-28T03:54:04;100390.72;;;18.03;100.00
62708;BME280;48769;51.624;5.886;2023-07-28T03:56:30;100394.41;;;18.02;100.00
62708;BME280;48769;51.624;5.886;2023-07-28T03:58:55;100396.06;;;18.03;100.00
62708;BME280;48769;51.624;5.886;2023-07-28T04:01:21;100397.78;;;18.04;100.00
62708;BME280;48769;51.624;5.886;2023-07-28T04:03:47;100406.50;;;18.06;100.00
62708;BME280;48769;51.624;5.886;2023-07-28T04:06:13;100397.47;;;18.07;100.00
62708;BME280;48769;51.624;5.886;2023-07-28T04:08:39;100400.88;;;18.09;100.00
62708;BME280;48769;51.624;5.886;2023-07-28T04:11:04;100388.22;;;18.11;100.00
62708;BME280;48769;51.624;5.886;2023-07-28T04:13:30;100390.91;;;18.11;100.00
62708;BME280;48769;51.624;5.886;2023-07-28T04:15:55;100393.28;;;18.14;100.00
62708;BME280;48769;51.624;5.886;2023-07-28T04:18:20;100391.59;;;18.13;100.00
62708;BME280;48769;51.624;5.886;2023-07-28T04:20:45;100400.31;;;18.15;100.00
62708;BME280;48769;51.624;5.886;2023-07-28T04:23:11;100404.84;;;18.14;100.00
62708;BME280;48769;51.624;5.886;2023-07-28T04:25:37;100408.19;;;18.16;100.00
62708;BME280;48769;51.624;5.886;2023-07-28T04:28:02;100410.03;;;18.16;100.00
62708;BME280;48769;51.624;5.886;2023-07-28T04:30:28;100412.69;;;18.16;100.00
62708;BME280;48769;51.624;5.886;2023-07-28T04:32:53;100419.75;;;18.17;100.00
62708;BME280;48769;51.624;5.886;2023-07-28T04:35:18;100406.22;;;18.18;100.00
62708;BME280;48769;51.624;5.886;2023-07-28T04:37:44;100413.13;;;18.21;100.00
62708;BME280;48769;51.624;5.886;2023-07-28T04:40:09;100420.16;;;18.22;100.00
62708;BME280;48769;51.624;5.886;2023-07-28T04:42:35;100414.81;;;18.22;100.00
62708;BME280;48769;51.624;5.886;2023-07-28T04:45:01;100417.50;;;18.22;100.00
62708;BME280;48769;51.624;5.886;2023-07-28T04:47:27;100417.50;;;18.22;100.00
62708;BME280;48769;51.624;5.886;2023-07-28T04:49:52;100412.16;;;18.22;100.00
62708;BME280;48769;51.624;5.886;2023-07-28T04:52:17;100411.03;;;18.25;100.00
62708;BME280;48769;51.624;5.886;2023-07-28T04:54:43;100412.72;;;18.26;100.00
62708;BME280;48769;51.624;5.886;2023-07-28T04:57:08;100410.19;;;18.24;100.00
62708;BME280;48769;51.624;5.886;2023-07-28T04:59:33;100413.81;;;18.23;100.00
62708;BME280;48769;51.624;5.886;2023-07-28T05:01:59;100409.34;;;18.24;100.00
62708;BME280;48769;51.624;5.886;2023-07-28T05:04:24;100407.25;;;18.27;100.00
62708;BME280;48769;51.624;5.886;2023-07-28T05:06:50;100413.28;;;18.29;100.00
62708;BME280;48769;51.624;5.886;2023-07-28T05:09:15;100407.66;;;18.32;100.00
62708;BME280;48769;51.624;5.886;2023-07-28T05:11:40;100411.88;;;18.35;100.00
62708;BME280;48769;51.624;5.886;2023-07-28T05:14:06;100419.78;;;18.36;100.00
62708;BME280;48769;51.624;5.886;2023-07-28T05:16:33;100417.94;;;18.37;100.00
62708;BME280;48769;51.624;5.886;2023-07-28T05:18:59;100420.34;;;18.40;100.00
62708;BME280;48769;51.624;5.886;2023-07-28T05:21:24;100425.53;;;18.41;100.00
62708;BME280;48769;51.624;5.886;2023-07-28T05:23:50;100438.63;;;18.44;100.00
62708;BME280;48769;51.624;5.886;2023-07-28T05:26:15;100443.97;;;18.44;100.00
62708;BME280;48769;51.624;5.886;2023-07-28T05:28:40;100446.53;;;18.46;100.00
62708;BME280;48769;51.624;5.886;2023-07-28T05:31:06;100456.94;;;18.49;100.00
62708;BME280;48769;51.624;5.886;2023-07-28T05:33:31;100461.16;;;18.52;100.00
62708;BME280;48769;51.624;5.886;2023-07-28T05:36:03;100456.09;;;18.49;100.00
62708;BME280;48769;51.624;5.886;2023-07-28T05:38:29;100460.59;;;18.48;100.00
62708;BME280;48769;51.624;5.886;2023-07-28T05:41:01;100461.59;;;18.47;100.00
62708;BME280;48769;51.624;5.886;2023-07-28T05:43:31;100468.50;;;18.50;100.00
62708;BME280;48769;51.624;5.886;2023-07-28T05:45:58;100472.13;;;18.49;100.00
62708;BME280;48769;51.624;5.886;2023-07-28T05:48:24;100470.44;;;18.48;100.00
62708;BME280;48769;51.624;5.886;2023-07-28T05:50:50;100471.00;;;18.51;100.00
62708;BME280;48769;51.624;5.886;2023-07-28T05:53:17;100475.25;;;18.54;100.00
62708;BME280;48769;51.624;5.886;2023-07-28T05:55:42;100475.25;;;18.54;100.00
62708;BME280;48769;51.624;5.886;2023-07-28T05:58:08;100474.41;;;18.53;100.00
62708;BME280;48769;51.624;5.886;2023-07-28T06:00:33;100474.41;;;18.53;100.00
62708;BME280;48769;51.624;5.886;2023-07-28T06:02:58;100482.00;;;18.58;100.00
62708;BME280;48769;51.624;5.886;2023-07-28T06:05:24;100480.88;;;18.60;100.00
62708;BME280;48769;51.624;5.886;2023-07-28T06:07:49;100482.00;;;18.58;100.00
62708;BME280;48769;51.624;5.886;2023-07-28T06:10:15;100487.50;;;18.56;100.00
62708;BME280;48769;51.624;5.886;2023-07-28T06:12:40;100492.69;;;18.58;100.00
62708;BME280;48769;51.624;5.886;2023-07-28T06:15:06;100480.03;;;18.60;100.00
62708;BME280;48769;51.624;5.886;2023-07-28T06:17:32;100479.03;;;18.61;100.00
62708;BME280;48769;51.624;5.886;2023-07-28T06:19:58;100484.97;;;18.64;100.00
62708;BME280;48769;51.624;5.886;2023-07-28T06:22:23;100484.84;;;18.66;100.00
62708;BME280;48769;51.624;5.886;2023-07-28T06:24:49;100479.63;;;18.64;100.00
62708;BME280;48769;51.624;5.886;2023-07-28T06:27:15;100483.13;;;18.65;100.00
62708;BME280;48769;51.624;5.886;2023-07-28T06:29:40;100490.88;;;18.68;100.00
62708;BME280;48769;51.624;5.886;2023-07-28T06:32:06;100488.75;;;18.72;100.00
62708;BME280;48769;51.624;5.886;2023-07-28T06:34:31;100489.38;;;18.75;100.00
62708;BME280;48769;51.624;5.886;2023-07-28T06:36:57;100494.44;;;18.78;100.00
62708;BME280;48769;51.624;5.886;2023-07-28T06:39:23;100501.22;;;18.82;100.00
62708;BME280;48769;51.624;5.886;2023-07-28T06:41:52;100495.59;;;18.85;100.00
62708;BME280;48769;51.624;5.886;2023-07-28T06:44:17;100499.94;;;18.86;100.00
62708;BME280;48769;51.624;5.886;2023-07-28T06:46:43;100499.38;;;18.92;100.00
62708;BME280;48769;51.624;5.886;2023-07-28T06:49:08;100502.34;;;18.99;100.00
62708;BME280;48769;51.624;5.886;2023-07-28T06:51:34;100512.59;;;19.04;100.00
62708;BME280;48769;51.624;5.886;2023-07-28T06:53:59;100507.97;;;19.06;100.00
62708;BME280;48769;51.624;5.886;2023-07-28T06:56:24;100502.03;;;19.12;100.00
62708;BME280;48769;51.624;5.886;2023-07-28T06:58:50;100507.38;;;19.22;100.00
62708;BME280;48769;51.624;5.886;2023-07-28T07:01:15;100509.88;;;19.43;100.00
62708;BME280;48769;51.624;5.886;2023-07-28T07:03:41;100512.50;;;19.62;100.00
62708;BME280;48769;51.624;5.886;2023-07-28T07:06:07;100514.63;;;19.68;100.00
62708;BME280;48769;51.624;5.886;2023-07-28T07:08:32;100529.16;;;19.66;100.00
62708;BME280;48769;51.624;5.886;2023-07-28T07:10:57;100523.22;;;19.62;100.00
62708;BME280;48769;51.624;5.886;2023-07-28T07:13:23;100527.91;;;19.60;100.00
62708;BME280;48769;51.624;5.886;2023-07-28T07:15:48;100536.06;;;19.58;100.00
62708;BME280;48769;51.624;5.886;2023-07-28T07:18:14;100536.22;;;19.57;100.00
62708;BME280;48769;51.624;5.886;2023-07-28T07:20:39;100537.47;;;19.53;100.00
62708;BME280;48769;51.624;5.886;2023-07-28T07:23:05;100540.75;;;19.47;100.00
62708;BME280;48769;51.624;5.886;2023-07-28T07:25:30;100542.28;;;19.49;100.00
62708;BME280;48769;51.624;5.886;2023-07-28T07:27:56;100539.47;;;19.51;100.00
62708;BME280;48769;51.624;5.886;2023-07-28T07:30:22;100548.50;;;19.50;100.00
62708;BME280;48769;51.624;5.886;2023-07-28T07:32:47;100548.22;;;19.43;100.00
62708;BME280;48769;51.624;5.886;2023-07-28T07:35:12;100547.25;;;19.44;100.00
62708;BME280;48769;51.624;5.886;2023-07-28T07:37:38;100551.47;;;19.47;100.00
62708;BME280;48769;51.624;5.886;2023-07-28T07:40:05;100549.91;;;19.54;100.00
62708;BME280;48769;51.624;5.886;2023-07-28T07:42:43;100562.03;;;19.58;100.00
62708;BME280;48769;51.624;5.886;2023-07-28T07:45:10;100552.97;;;19.59;100.00
62708;BME280;48769;51.624;5.886;2023-07-28T07:47:36;100558.63;;;19.56;100.00
62708;BME280;48769;51.624;5.886;2023-07-28T07:50:01;100564.69;;;19.58;100.00
62708;BME280;48769;51.624;5.886;2023-07-28T07:52:27;100559.50;;;19.56;100.00
62708;BME280;48769;51.624;5.886;2023-07-28T07:54:55;100562.56;;;19.61;100.00
62708;BME280;48769;51.624;5.886;2023-07-28T07:57:20;100567.41;;;19.68;100.00
62708;BME280;48769;51.624;5.886;2023-07-28T07:59:46;100561.19;;;19.67;100.00
62708;BME280;48769;51.624;5.886;2023-07-28T08:02:11;100565.44;;;19.70;100.00
62708;BME280;48769;51.624;5.886;2023-07-28T08:04:36;100566.09;;;19.72;100.00
62708;BME280;48769;51.624;5.886;2023-07-28T08:07:02;100571.34;;;19.73;100.00
62708;BME280;48769;51.624;5.886;2023-07-28T08:09:29;100573.03;;;19.74;100.00
62708;BME280;48769;51.624;5.886;2023-07-28T08:11:55;100567.94;;;19.71;100.00
62708;BME280;48769;51.624;5.886;2023-07-28T08:14:20;100575.69;;;19.74;100.00
62708;BME280;48769;51.624;5.886;2023-07-28T08:16:46;100574.69;;;19.75;100.00
62708;BME280;48769;51.624;5.886;2023-07-28T08:19:11;100572.03;;;19.75;100.00
62708;BME280;48769;51.624;5.886;2023-07-28T08:21:37;100579.66;;;19.80;100.00
62708;BME280;48769;51.624;5.886;2023-07-28T08:24:03;100585.28;;;19.87;100.00
62708;BME280;48769;51.624;5.886;2023-07-28T08:26:29;100577.78;;;19.90;100.00
62708;BME280;48769;51.624;5.886;2023-07-28T08:28:55;100578.03;;;19.97;100.00
62708;BME280;48769;51.624;5.886;2023-07-28T08:31:20;100586.63;;;20.00;100.00
62708;BME280;48769;51.624;5.886;2023-07-28T08:33:45;100586.75;;;20.08;100.00
62708;BME280;48769;51.624;5.886;2023-07-28T08:36:11;100595.47;;;20.11;100.00
62708;BME280;48769;51.624;5.886;2023-07-28T08:38:36;100596.63;;;20.08;100.00
62708;BME280;48769;51.624;5.886;2023-07-28T08:41:02;100598.06;;;20.02;100.00
62708;BME280;48769;51.624;5.886;2023-07-28T08:43:28;100592.44;;;19.96;100.00
62708;BME280;48769;51.624;5.886;2023-07-28T08:45:53;100606.81;;;19.95;100.00
62708;BME280;48769;51.624;5.886;2023-07-28T08:48:19;100601.16;;;19.98;100.00
62708;BME280;48769;51.624;5.886;2023-07-28T08:50:45;100607.63;;;20.05;100.00
62708;BME280;48769;51.624;5.886;2023-07-28T08:53:10;100601.44;;;20.04;100.00
62708;BME280;48769;51.624;5.886;2023-07-28T08:55:35;100598.91;;;20.03;100.00
62708;BME280;48769;51.624;5.886;2023-07-28T08:58:18;100605.94;;;20.04;100.00
62708;BME280;48769;51.624;5.886;2023-07-28T09:00:45;100601.59;;;20.03;100.00
62708;BME280;48769;51.624;5.886;2023-07-28T09:03:12;100606.66;;;20.06;100.00
62708;BME280;48769;51.624;5.886;2023-07-28T09:05:37;100608.22;;;20.08;100.00
62708;BME280;48769;51.624;5.886;2023-07-28T09:08:05;100609.34;;;20.06;100.00
62708;BME280;48769;51.624;5.886;2023-07-28T09:10:47;100610.19;;;20.06;100.00
62708;BME280;48769;51.624;5.886;2023-07-28T09:13:17;100604.66;;;20.08;100.00
62708;BME280;48769;51.624;5.886;2023-07-28T09:15:43;100608.47;;;20.15;100.00
62708;BME280;48769;51.624;5.886;2023-07-28T09:18:10;100610.16;;;20.16;100.00
62708;BME280;48769;51.624;5.886;2023-07-28T09:20:40;100603.78;;;20.17;100.00
62708;BME280;48769;51.624;5.886;2023-07-28T09:23:13;100605.88;;;20.23;100.00
62708;BME280;48769;51.624;5.886;2023-07-28T09:25:39;100607.56;;;20.24;100.00
62708;BME280;48769;51.624;5.886;2023-07-28T09:28:04;100618.88;;;20.28;100.00
62708;BME280;48769;51.624;5.886;2023-07-28T09:30:49;100621.69;;;20.26;100.00
62708;BME280;48769;51.624;5.886;2023-07-28T09:33:29;100616.03;;;20.29;100.00
62708;BME280;48769;51.624;5.886;2023-07-28T09:35:55;100619.84;;;20.27;100.00
62708;BME280;48769;51.624;5.886;2023-07-28T09:38:22;100618.28;;;20.24;100.00
62708;BME280;48769;51.624;5.886;2023-07-28T09:40:48;100614.94;;;20.22;100.00
62708;BME280;48769;51.624;5.886;2023-07-28T09:43:14;100623.81;;;20.23;100.00
62708;BME280;48769;51.624;5.886;2023-07-28T09:45:40;100619.16;;;20.25;100.00
62708;BME280;48769;51.624;5.886;2023-07-28T09:48:09;100614.06;;;20.31;100.00
62708;BME280;48769;51.624;5.886;2023-07-28T09:50:37;100603.28;;;20.41;100.00
62708;BME280;48769;51.624;5.886;2023-07-28T09:53:04;100614.78;;;20.61;100.00
62708;BME280;48769;51.624;5.886;2023-07-28T09:55:29;100611.53;;;20.85;100.00
62708;BME280;48769;51.624;5.886;2023-07-28T09:57:57;100611.75;;;20.92;100.00
62708;BME280;48769;51.624;5.886;2023-07-28T10:00:23;100609.78;;;20.94;100.00
62708;BME280;48769;51.624;5.886;2023-07-28T10:02:49;100627.56;;;20.95;100.00
62708;BME280;48769;51.624;5.886;2023-07-28T10:05:18;100625.19;;;20.92;100.00
62708;BME280;48769;51.624;5.886;2023-07-28T10:07:45;100621.13;;;20.88;100.00
62708;BME280;48769;51.624;5.886;2023-07-28T10:10:14;100625.88;;;20.94;100.00
62708;BME280;48769;51.624;5.886;2023-07-28T10:12:48;100621.91;;;20.98;100.00
62708;BME280;48769;51.624;5.886;2023-07-28T10:15:16;100635.72;;;21.03;100.00
62708;BME280;48769;51.624;5.886;2023-07-28T10:20:35;100627.44;;;21.14;100.00
62708;BME280;48769;51.624;5.886;2023-07-28T10:23:15;100628.13;;;21.16;100.00
62708;BME280;48769;51.624;5.886;2023-07-28T10:25:43;100629.03;;;21.25;100.00
62708;BME280;48769;51.624;5.886;2023-07-28T10:30:54;100619.66;;;21.39;100.00
62708;BME280;48769;51.624;5.886;2023-07-28T10:33:34;100623.63;;;21.35;100.00
62708;BME280;48769;51.624;5.886;2023-07-28T10:38:35;100629.00;;;21.35;100.00
62708;BME280;48769;51.624;5.886;2023-07-28T10:41:11;100630.44;;;21.47;100.00
62708;BME280;48769;51.624;5.886;2023-07-28T10:43:37;100624.22;;;21.64;100.00
62708;BME280;48769;51.624;5.886;2023-07-28T10:46:04;100635.63;;;21.84;100.00
62708;BME280;48769;51.624;5.886;2023-07-28T10:48:31;100625.13;;;21.99;100.00
62708;BME280;48769;51.624;5.886;2023-07-28T10:50:56;100625.94;;;22.17;100.00
62708;BME280;48769;51.624;5.886;2023-07-28T10:53:21;100628.16;;;22.22;100.00
62708;BME280;48769;51.624;5.886;2023-07-28T10:55:47;100626.34;;;22.31;100.00
62708;BME280;48769;51.624;5.886;2023-07-28T10:58:12;100626.03;;;22.34;100.00
62708;BME280;48769;51.624;5.886;2023-07-28T11:00:37;100628.09;;;22.40;100.00
62708;BME280;48769;51.624;5.886;2023-07-28T11:03:03;100629.63;;;22.43;100.00
62708;BME280;48769;51.624;5.886;2023-07-28T11:05:30;100626.63;;;22.54;100.00
62708;BME280;48769;51.624;5.886;2023-07-28T11:07:58;100627.47;;;22.54;100.00
62708;BME280;48769;51.624;5.886;2023-07-28T11:10:25;100624.09;;;22.52;100.00
62708;BME280;48769;51.624;5.886;2023-07-28T11:12:53;100621.31;;;22.70;100.00
62708;BME280;48769;51.624;5.886;2023-07-28T11:15:19;100617.84;;;22.94;100.00
62708;BME280;48769;51.624;5.886;2023-07-28T11:17:49;100615.88;;;23.04;100.00
62708;BME280;48769;51.624;5.886;2023-07-28T11:20:23;100623.28;;;23.10;100.00
62708;BME280;48769;51.624;5.886;2023-07-28T11:25:17;100620.09;;;23.15;100.00
62708;BME280;48769;51.624;5.886;2023-07-28T11:27:45;100618.75;;;23.11;100.00
62708;BME280;48769;51.624;5.886;2023-07-28T11:30:12;100615.25;;;23.27;100.00
62708;BME280;48769;51.624;5.886;2023-07-28T11:32:38;100613.56;;;23.50;100.00
62708;BME280;48769;51.624;5.886;2023-07-28T11:35:08;100612.72;;;23.50;100.00
62708;BME280;48769;51.624;5.886;2023-07-28T11:37:35;100615.91;;;23.53;100.00
62708;BME280;48769;51.624;5.886;2023-07-28T11:40:05;100610.16;;;23.65;100.00
62708;BME280;48769;51.624;5.886;2023-07-28T11:42:37;100598.53;;;23.64;100.00
62708;BME280;48769;51.624;5.886;2023-07-28T11:45:04;100603.75;;;23.66;100.00
62708;BME280;48769;51.624;5.886;2023-07-28T11:47:30;100602.09;;;23.81;100.00
62708;BME280;48769;51.624;5.886;2023-07-28T11:49:56;100614.22;;;23.93;100.00
62708;BME280;48769;51.624;5.886;2023-07-28T11:52:24;100611.13;;;24.05;100.00
62708;BME280;48769;51.624;5.886;2023-07-28T11:54:51;100612.66;;;24.15;100.00
62708;BME280;48769;51.624;5.886;2023-07-28T11:57:16;100613.97;;;24.19;100.00
62708;BME280;48769;51.624;5.886;2023-07-28T11:59:43;100609.75;;;24.17;100.00
62708;BME280;48769;51.624;5.886;2023-07-28T12:02:09;100609.97;;;24.07;100.00
62708;BME280;48769;51.624;5.886;2023-07-28T12:04:37;100603.75;;;23.98;100.00
62708;BME280;48769;51.624;5.886;2023-07-28T12:07:13;100601.41;;;23.95;100.00
62708;BME280;48769;51.624;5.886;2023-07-28T12:12:10;100599.66;;;24.11;100.00
62708;BME280;48769;51.624;5.886;2023-07-28T12:14:35;100598.63;;;24.20;100.00
62708;BME280;48769;51.624;5.886;2023-07-28T12:17:01;100602.28;;;24.35;100.00
62708;BME280;48769;51.624;5.886;2023-07-28T12:19:28;100607.03;;;24.41;100.00
62708;BME280;48769;51.624;5.886;2023-07-28T12:21:53;100596.84;;;24.52;100.00
62708;BME280;48769;51.624;5.886;2023-07-28T12:24:18;100602.28;;;24.35;100.00
62708;BME280;48769;51.624;5.886;2023-07-28T12:26:46;100605.69;;;24.21;100.00
62708;BME280;48769;51.624;5.886;2023-07-28T12:29:12;100608.38;;;24.29;100.00
62708;BME280;48769;51.624;5.886;2023-07-28T12:31:38;100608.34;;;24.54;100.00
62708;BME280;48769;51.624;5.886;2023-07-28T12:34:04;100605.09;;;24.58;100.00
62708;BME280;48769;51.624;5.886;2023-07-28T12:36:29;100604.06;;;24.59;100.00
62708;BME280;48769;51.624;5.886;2023-07-28T12:38:55;100603.22;;;24.59;100.00
62708;BME280;48769;51.624;5.886;2023-07-28T12:41:20;100612.75;;;24.78;100.00
62708;BME280;48769;51.624;5.886;2023-07-28T12:43:45;100610.41;;;25.06;100.00
62708;BME280;48769;51.624;5.886;2023-07-28T12:46:11;100610.47;;;25.21;100.00
62708;BME280;48769;51.624;5.886;2023-07-28T12:48:37;100603.81;;;25.31;100.00
62708;BME280;48769;51.624;5.886;2023-07-28T12:51:03;100613.91;;;25.37;100.00